Jennifer — WDF6480 — position and weather

sailwx.info

Track history (hours):
 
Tides and Currents Weather Stations Pressure Air Temp Water Temp Dewpoint Dewpoint Depression Visibility Wind Speed Wind Dir Waves Ship Positions

Jennifer

Owner: John W. Stone Oil Distributor, L.L.C., Gretna, LA. More information available from US FCC via Universal Licensing System and Coast Guard Vessel Documentation Center.

Last reported at 2017-May-21 03:42 UTC. Time now 2017-May-28 04:45 UTC.
Position N 29°33' W 090°26'.

Length 17 m; draft 3 m.

Type: Tug. MMSI: 367474690.

Date/timePositionNaut miles runAvg speedWind from/ knotsBaromVisibWave heightAir tempDewpointWater temp
2017-May-21 03:42N 29°33' W 090°26'1 5.6
2017-May-21 03:30N 29°33' W 090°28'3 5.6
2017-May-21 02:57N 29°34' W 090°31'2 5.5
2017-May-21 02:30N 29°34' W 090°34'3 5.3
2017-May-21 02:00N 29°35' W 090°37'3 5.3
2017-May-21 01:30N 29°36' W 090°40'2 4.9
2017-May-21 01:00N 29°37' W 090°42'3 5.3
2017-May-21 00:30N 29°34' W 090°43'1 2.7
2017-May-21 00:00N 29°33' W 090°42'0 0.0
2017-May-20 23:30N 29°33' W 090°42'0 0.0
2017-May-20 23:00N 29°33' W 090°42'0 0.0
2017-May-20 22:30N 29°33' W 090°42'0 0.0
2017-May-20 22:00N 29°33' W 090°42'0 0.0
2017-May-20 21:30N 29°33' W 090°42'0 0.0
2017-May-20 21:00N 29°33' W 090°42'0 0.0
2017-May-20 20:30N 29°33' W 090°42'0 0.0
2017-May-20 20:00N 29°33' W 090°42'0 0.0
2017-May-20 19:30N 29°33' W 090°42'1 1.9
2017-May-20 19:00N 29°34' W 090°43'2 4.4
2017-May-20 18:30N 29°36' W 090°43'1 2.7
2017-May-20 18:00N 29°37' W 090°41'2 3.8
2017-May-20 17:30N 29°36' W 090°39'0 0.0
2017-May-20 17:00N 29°36' W 090°39'0 0.0
2017-May-20 16:30N 29°36' W 090°39'0 0.0
2017-May-20 16:00N 29°36' W 090°39'0 0.0
2017-May-20 15:30N 29°36' W 090°39'0 0.0
2017-May-20 15:00N 29°36' W 090°39'0 0.0
2017-May-20 14:00N 29°36' W 090°39'0 0.0
2017-May-20 13:30N 29°36' W 090°39'0 0.0
2017-May-20 13:00N 29°36' W 090°39'0 0.0
2017-May-20 12:30N 29°36' W 090°39'0 0.0
2017-May-20 12:00N 29°36' W 090°39'0 0.0
2017-May-20 11:30N 29°36' W 090°39'0 0.0
2017-May-20 11:00N 29°36' W 090°39'0 0.0
2017-May-20 10:30N 29°36' W 090°39'0 0.0
2017-May-20 10:00N 29°36' W 090°39'0 0.0
2017-May-20 09:30N 29°36' W 090°39'0 0.0
2017-May-20 09:00N 29°36' W 090°39'0 0.0
2017-May-20 08:30N 29°36' W 090°39'0 0.0
2017-May-20 08:00N 29°36' W 090°39'0 0.0
2017-May-20 07:30N 29°36' W 090°39'0 0.0
2017-May-20 07:00N 29°36' W 090°39'0 0.0
2017-May-20 06:30N 29°36' W 090°39'0 0.0
2017-May-20 06:00N 29°36' W 090°39'0 0.0
2017-May-20 05:30N 29°36' W 090°39'0 0.0
2017-May-20 05:00N 29°36' W 090°39'0 1.0
2017-May-20 04:30N 29°36' W 090°39'2 4.4
2017-May-20 04:00N 29°35' W 090°37'2 4.5
2017-May-20 03:30N 29°34' W 090°34'  
Track history (hours):
 
Tides and Currents Weather Stations Pressure Air Temp Water Temp Dewpoint Dewpoint Depression Visibility Wind Speed Wind Dir Waves Ship Positions

Jennifer

Owner: John W. Stone Oil Distributor, L.L.C., Gretna, LA. More information available from US FCC via Universal Licensing System and Coast Guard Vessel Documentation Center.

Last reported at 2017-May-21 03:42 UTC. Time now 2017-May-28 04:45 UTC.
Position N 29°33' W 090°26'.

Length 17 m; draft 3 m.

Type: Tug. MMSI: 367474690.

Date/timePositionNaut miles runAvg speedWind from/ knotsBaromVisibWave heightAir tempDewpointWater temp
2017-May-21 03:42N 29°33' W 090°26'1 5.6
2017-May-21 03:30N 29°33' W 090°28'3 5.6
2017-May-21 02:57N 29°34' W 090°31'2 5.5
2017-May-21 02:30N 29°34' W 090°34'3 5.3
2017-May-21 02:00N 29°35' W 090°37'3 5.3
2017-May-21 01:30N 29°36' W 090°40'2 4.9
2017-May-21 01:00N 29°37' W 090°42'3 5.3
2017-May-21 00:30N 29°34' W 090°43'1 2.7
2017-May-21 00:00N 29°33' W 090°42'0 0.0
2017-May-20 23:30N 29°33' W 090°42'0 0.0
2017-May-20 23:00N 29°33' W 090°42'0 0.0
2017-May-20 22:30N 29°33' W 090°42'0 0.0
2017-May-20 22:00N 29°33' W 090°42'0 0.0
2017-May-20 21:30N 29°33' W 090°42'0 0.0
2017-May-20 21:00N 29°33' W 090°42'0 0.0
2017-May-20 20:30N 29°33' W 090°42'0 0.0
2017-May-20 20:00N 29°33' W 090°42'0 0.0
2017-May-20 19:30N 29°33' W 090°42'1 1.9
2017-May-20 19:00N 29°34' W 090°43'2 4.4
2017-May-20 18:30N 29°36' W 090°43'1 2.7
2017-May-20 18:00N 29°37' W 090°41'2 3.8
2017-May-20 17:30N 29°36' W 090°39'0 0.0
2017-May-20 17:00N 29°36' W 090°39'0 0.0
2017-May-20 16:30N 29°36' W 090°39'0 0.0
2017-May-20 16:00N 29°36' W 090°39'0 0.0
2017-May-20 15:30N 29°36' W 090°39'0 0.0
2017-May-20 15:00N 29°36' W 090°39'0 0.0
2017-May-20 14:00N 29°36' W 090°39'0 0.0
2017-May-20 13:30N 29°36' W 090°39'0 0.0
2017-May-20 13:00N 29°36' W 090°39'0 0.0
2017-May-20 12:30N 29°36' W 090°39'0 0.0
2017-May-20 12:00N 29°36' W 090°39'0 0.0
2017-May-20 11:30N 29°36' W 090°39'0 0.0
2017-May-20 11:00N 29°36' W 090°39'0 0.0
2017-May-20 10:30N 29°36' W 090°39'0 0.0
2017-May-20 10:00N 29°36' W 090°39'0 0.0
2017-May-20 09:30N 29°36' W 090°39'0 0.0
2017-May-20 09:00N 29°36' W 090°39'0 0.0
2017-May-20 08:30N 29°36' W 090°39'0 0.0
2017-May-20 08:00N 29°36' W 090°39'0 0.0
2017-May-20 07:30N 29°36' W 090°39'0 0.0
2017-May-20 07:00N 29°36' W 090°39'0 0.0
2017-May-20 06:30N 29°36' W 090°39'0 0.0
2017-May-20 06:00N 29°36' W 090°39'0 0.0
2017-May-20 05:30N 29°36' W 090°39'0 0.0
2017-May-20 05:00N 29°36' W 090°39'0 1.0
2017-May-20 04:30N 29°36' W 090°39'2 4.4
2017-May-20 04:00N 29°35' W 090°37'2 4.5
2017-May-20 03:30N 29°34' W 090°34'  

Dump ship's entire track history